LIPH Airport Information

Runway Information
Runway 07 Length 7941 ft width 144 ft
Elevation 56 ft Threshold 254 ft Heading 69
Runway 25 Length 7941 ft Width 144 ft
Elevation 51 ft Threshold 389 ft Heading 249
Airport Frequencies
Type APP Name APP Frequency 36.23 MHZ
Type APP Name APP Frequency 120.4 MHZ
Type GND Name GND Frequency 27.917 MHZ
Type INFO Name PADOVA INF Frequency 124.15 MHZ
Type TWR Name TWR Frequency 118.7 MHZ
Airport Navaids
Type NDB Name Treviso Frequency 302 KHZ
Airport Weather Information & NOTAM
ADDS - METARS form results

(0348 UTC 18 November 2018)
Data provider http://aviationweather.gov/metar/data/
 
METAR text: LIPH 180320Z AUTO 01005KT 9999 NCD 04/M04 Q1024
Conditions at: LIPH (TREVISO(CIV/IT-A, IT) observed 0320 UTC 18 November 2018
Temperature: 4.0°C (39°F)
Dewpoint: -4.0°C (25°F) [RH = 56%]
Pressure (altimeter): 30.24 inches Hg (1024.0 mb)
Winds: from the N (10 degrees) at 6 MPH (5 knots; 2.6 m/s)
Visibility: 6 or more miles (10+ km)
Ceiling: at least 12,000 feet AGL
Clouds: sky clear below 12,000 feet AGL
Weather: no significant weather observed at this time

METAR text: LIPH 180250Z AUTO 02004KT 350V050 9999 NCD 04/M04 Q1024
Conditions at: LIPH (TREVISO(CIV/IT-A, IT) observed 0250 UTC 18 November 2018
Temperature: 4.0°C (39°F)
Dewpoint: -4.0°C (25°F) [RH = 56%]
Pressure (altimeter): 30.24 inches Hg (1024.0 mb)
Winds: from the NNE (20 degrees) at 5 MPH (4 knots; 2.1 m/s)
Visibility: 6 or more miles (10+ km)
Ceiling: at least 12,000 feet AGL
Clouds: sky clear below 12,000 feet AGL
Weather: no significant weather observed at this time

Forecast for: LIPH (TREVISO(CIV/IT-A, IT)
Text: TAF LIPH 172300Z 1800/1824 06010KT 9999 FEW040
Forecast period: 0000 UTC 18 November 2018 to 0000 UTC 19 November 2018
Forecast type: FROM: standard forecast or significant change
Winds: from the ENE (60 degrees) at 12 MPH (10 knots; 5.1 m/s)
Visibility: 6 or more miles 10+ km)
Ceiling: at least 12,000 feet AGL
Clouds: few clouds at 4000 feet AGL
Weather: no significant weather forecast for this period